createdAt,value
2023-04-18T00:01:06.708Z,102678.97
2023-04-18T00:06:10.668Z,102678.53
2023-04-18T00:11:13.176Z,102680.72
2023-04-18T00:16:15.998Z,102680.53
2023-04-18T00:21:19.092Z,102661.88
2023-04-18T00:26:21.557Z,102680.34
2023-04-18T00:31:24.333Z,102682.78
2023-04-18T00:36:28.237Z,102686.41
2023-04-18T00:41:30.969Z,102680.81
2023-04-18T00:46:33.737Z,102675.81
2023-04-18T00:51:36.608Z,102674.38
2023-04-18T00:56:39.673Z,102670.31
2023-04-18T01:01:43.547Z,102681.16
2023-04-18T01:06:49.074Z,102679.47
2023-04-18T01:11:52.461Z,102680.69
2023-04-18T01:16:55.136Z,102684.56
2023-04-18T01:21:57.873Z,102681.19
2023-04-18T01:27:02.090Z,102683.72
2023-04-18T01:32:04.907Z,102674.47
2023-04-18T01:37:07.621Z,102680.72
2023-04-18T01:42:10.344Z,102693.94
2023-04-18T01:47:13.205Z,102710.31
2023-04-18T01:52:16.479Z,102696.63
2023-04-18T01:57:18.935Z,102697.03
2023-04-18T02:02:21.829Z,102697.13
2023-04-18T02:07:24.660Z,102705.31
2023-04-18T02:12:27.280Z,102709.88
2023-04-18T02:17:30.673Z,102713.13
2023-04-18T02:22:33.940Z,102713.00
2023-04-18T02:27:37.791Z,102711.06
2023-04-18T02:32:40.652Z,102707.47
2023-04-18T02:37:43.359Z,102710.44
2023-04-18T02:42:48.427Z,102712.44
2023-04-18T02:47:55.446Z,102726.88
2023-04-18T02:52:58.484Z,102712.06
2023-04-18T02:58:17.261Z,102720.38
2023-04-18T03:03:41.436Z,102717.81
2023-04-18T03:08:58.003Z,102701.88
2023-04-18T03:14:01.761Z,102707.44
2023-04-18T03:19:12.198Z,102719.38
2023-04-18T03:24:15.637Z,102721.09
2023-04-18T03:29:22.523Z,102734.25
2023-04-18T03:34:25.288Z,102739.59
2023-04-18T03:39:29.651Z,102724.88
2023-04-18T03:44:32.686Z,102727.28
2023-04-18T03:49:54.643Z,102723.56
2023-04-18T03:55:00.185Z,102725.13
2023-04-18T04:00:08.985Z,102731.75
2023-04-18T04:05:29.948Z,102736.97
2023-04-18T04:10:32.992Z,102729.31
2023-04-18T04:15:39.526Z,102725.41
2023-04-18T04:20:46.622Z,102725.97
2023-04-18T04:25:58.902Z,102743.41
2023-04-18T04:31:33.925Z,102729.53
2023-04-18T04:36:37.025Z,102742.25
2023-04-18T04:41:41.985Z,102735.63
2023-04-18T04:46:45.354Z,102742.00
2023-04-18T04:51:55.105Z,102740.50
2023-04-18T04:56:58.326Z,102733.09
2023-04-18T05:02:01.320Z,102733.16
2023-04-18T05:07:03.998Z,102733.22
2023-04-18T05:12:06.907Z,102733.50
2023-04-18T05:17:09.562Z,102731.66
2023-04-18T05:22:12.445Z,102730.16
2023-04-18T05:27:17.203Z,102731.63
2023-04-18T05:32:21.697Z,102730.41
2023-04-18T05:37:26.354Z,102730.50
2023-04-18T05:42:29.001Z,102716.50
2023-04-18T05:47:31.903Z,102735.91
2023-04-18T05:52:34.854Z,102740.66
2023-04-18T05:57:37.531Z,102732.19
2023-04-18T06:02:40.358Z,102736.38
2023-04-18T06:07:43.196Z,102725.41
2023-04-18T06:12:47.114Z,102727.13
2023-04-18T06:17:50.928Z,102740.63
2023-04-18T06:22:53.842Z,102716.56
2023-04-18T06:27:58.967Z,102727.41
2023-04-18T06:33:01.834Z,102734.06
2023-04-18T06:38:04.816Z,102722.31
2023-04-18T06:43:07.389Z,102713.56
2023-04-18T06:48:11.676Z,102720.34
2023-04-18T06:53:15.259Z,102713.25
2023-04-18T06:58:18.260Z,102709.50
2023-04-18T07:03:21.100Z,102712.91
2023-04-18T07:08:23.788Z,102710.28
2023-04-18T07:13:26.303Z,102704.34
2023-04-18T07:18:37.241Z,102709.09
2023-04-18T07:23:41.346Z,102696.75
2023-04-18T07:28:44.023Z,102689.03
2023-04-18T07:33:46.749Z,102686.44
2023-04-18T07:38:52.461Z,102677.66
2023-04-18T07:43:55.075Z,102669.06
2023-04-18T07:48:57.595Z,102668.16
2023-04-18T07:54:00.314Z,102662.94
2023-04-18T07:59:02.914Z,102661.19
2023-04-18T08:04:06.031Z,102657.69
2023-04-18T08:09:09.499Z,102646.75
2023-04-18T08:14:12.733Z,102630.72
2023-04-18T08:19:15.890Z,102631.69
2023-04-18T08:24:18.653Z,102625.19
2023-04-18T08:29:21.274Z,102614.94
2023-04-18T08:34:24.234Z,102616.59
2023-04-18T08:39:27.022Z,102609.41
2023-04-18T08:44:30.158Z,102599.47
2023-04-18T08:49:33.055Z,102591.50
2023-04-18T08:54:37.644Z,102567.25
2023-04-18T08:59:43.200Z,102580.34
2023-04-18T09:04:49.472Z,102577.22
2023-04-18T09:09:54.135Z,102570.53
2023-04-18T09:15:09.783Z,102575.41
2023-04-18T09:20:15.870Z,102578.78
2023-04-18T09:25:29.627Z,102573.03
2023-04-18T09:30:40.685Z,102576.56
2023-04-18T09:35:43.744Z,102565.50
2023-04-18T09:41:08.282Z,102565.50
2023-04-18T09:46:11.276Z,102558.22
2023-04-18T09:51:18.454Z,102552.00
2023-04-18T09:56:26.447Z,102555.38
2023-04-18T10:01:30.075Z,102542.50
2023-04-18T10:06:42.302Z,102542.41
2023-04-18T10:11:45.135Z,102538.22
2023-04-18T10:16:49.966Z,102540.31
2023-04-18T10:21:57.786Z,102536.25
2023-04-18T10:27:03.053Z,102527.59
2023-04-18T10:32:07.283Z,102525.75
2023-04-18T10:37:10.057Z,102520.28
2023-04-18T10:42:13.340Z,102526.19
2023-04-18T10:47:20.286Z,102520.53
2023-04-18T10:52:23.026Z,102519.72
2023-04-18T10:57:26.952Z,102499.56
2023-04-18T11:02:32.724Z,102503.38
2023-04-18T11:07:41.246Z,102491.00
2023-04-18T11:12:43.818Z,102496.69
2023-04-18T11:17:46.485Z,102484.09
2023-04-18T11:22:51.614Z,102473.09
2023-04-18T11:27:57.214Z,102472.41
2023-04-18T11:32:59.979Z,102457.00
2023-04-18T11:38:06.592Z,102461.69
2023-04-18T11:43:09.369Z,102440.63
2023-04-18T11:48:14.181Z,102445.19
2023-04-18T11:53:47.533Z,102439.91
2023-04-18T11:58:50.293Z,102429.97
2023-04-18T12:04:06.979Z,102431.44
2023-04-18T12:09:15.522Z,102410.84
2023-04-18T12:14:22.042Z,102413.59
2023-04-18T12:19:29.749Z,102424.81
2023-04-18T12:24:32.942Z,102412.56
2023-04-18T12:29:35.863Z,102414.72
2023-04-18T12:34:38.510Z,102411.81
2023-04-18T12:39:41.188Z,102416.34
2023-04-18T12:44:45.313Z,102410.50
2023-04-18T12:49:49.030Z,102399.19
2023-04-18T12:54:51.729Z,102397.66
2023-04-18T12:59:54.184Z,102393.84
2023-04-18T13:04:57.623Z,102390.56
2023-04-18T13:10:00.610Z,102381.97
2023-04-18T13:15:03.941Z,102375.09
2023-04-18T13:20:12.878Z,102372.59
2023-04-18T13:25:17.100Z,102361.50
2023-04-18T13:30:20.807Z,102358.56
2023-04-18T13:35:23.442Z,102362.59
2023-04-18T13:40:27.025Z,102356.91
2023-04-18T13:45:30.242Z,102357.66
2023-04-18T13:50:33.814Z,102347.75
2023-04-18T13:55:37.517Z,102344.72
2023-04-18T14:00:41.135Z,102342.56
2023-04-18T14:05:44.942Z,102343.75
2023-04-18T14:10:48.482Z,102325.47
2023-04-18T14:15:53.454Z,102322.34
2023-04-18T14:20:59.274Z,102325.00
2023-04-18T14:26:02.101Z,102315.88
2023-04-18T14:31:06.775Z,102313.13
2023-04-18T14:36:10.137Z,102312.38
2023-04-18T14:41:12.780Z,102304.94
2023-04-18T14:46:18.830Z,102308.06
2023-04-18T14:51:23.094Z,102296.78
2023-04-18T14:56:25.767Z,102299.84
2023-04-18T15:01:28.621Z,102286.28
2023-04-18T15:06:31.439Z,102277.22
2023-04-18T15:11:34.014Z,102285.94
2023-04-18T15:16:38.338Z,102294.41
2023-04-18T15:21:41.076Z,102293.63
2023-04-18T15:26:43.689Z,102289.78
2023-04-18T15:31:47.018Z,102282.38
2023-04-18T15:36:49.951Z,102281.97
2023-04-18T15:42:10.922Z,102270.59
2023-04-18T15:47:13.777Z,102284.44
2023-04-18T15:52:17.030Z,102273.31
2023-04-18T15:57:19.635Z,102268.72
2023-04-18T16:02:22.307Z,102276.25
2023-04-18T16:07:25.171Z,102276.38
2023-04-18T16:12:27.817Z,102279.13
2023-04-18T16:17:30.573Z,102287.25
2023-04-18T16:22:33.141Z,102298.22
2023-04-18T16:27:35.982Z,102296.66
2023-04-18T16:32:38.914Z,102289.31
2023-04-18T16:37:41.741Z,102290.66
2023-04-18T16:42:44.478Z,102284.44
2023-04-18T16:47:47.299Z,102282.91
2023-04-18T16:52:50.296Z,102284.78
2023-04-18T16:57:52.861Z,102286.03
2023-04-18T17:02:57.106Z,102273.59
2023-04-18T17:08:00.609Z,102274.97
2023-04-18T17:13:04.014Z,102276.75
2023-04-18T17:18:09.738Z,102282.16
2023-04-18T17:23:12.291Z,102280.84
2023-04-18T17:28:15.342Z,102291.00
2023-04-18T17:33:21.060Z,102289.50
2023-04-18T17:38:24.275Z,102288.56
2023-04-18T17:43:27.186Z,102290.56
2023-04-18T17:48:29.809Z,102291.97
2023-04-18T17:53:32.663Z,102298.03
2023-04-18T17:58:35.221Z,102304.56
2023-04-18T18:03:38.312Z,102310.97
2023-04-18T18:08:43.434Z,102306.13
2023-04-18T18:13:46.950Z,102310.97
2023-04-18T18:18:49.896Z,102314.69
2023-04-18T18:23:52.757Z,102315.09
2023-04-18T18:28:55.490Z,102325.31
2023-04-18T18:33:58.106Z,102325.16
2023-04-18T18:39:00.834Z,102324.34
2023-04-18T18:44:03.689Z,102319.84
2023-04-18T18:49:06.276Z,102313.22
2023-04-18T18:54:08.938Z,102321.94
2023-04-18T18:59:11.986Z,102319.31
2023-04-18T19:04:14.830Z,102313.66
2023-04-18T19:09:17.486Z,102301.13
2023-04-18T19:14:20.626Z,102310.69
2023-04-18T19:19:23.263Z,102286.38
2023-04-18T19:24:25.816Z,102305.72
2023-04-18T19:29:30.598Z,102293.75
2023-04-18T19:34:34.670Z,102306.09
2023-04-18T19:39:37.341Z,102304.59
2023-04-18T19:44:40.124Z,102297.16
2023-04-18T19:49:42.749Z,102298.13
2023-04-18T19:54:45.441Z,102307.31
2023-04-18T19:59:48.092Z,102303.16
2023-04-18T20:04:50.919Z,102297.31
2023-04-18T20:09:53.834Z,102295.16
2023-04-18T20:14:58.961Z,102282.19
2023-04-18T20:20:01.711Z,102289.84
2023-04-18T20:25:07.233Z,102283.53
2023-04-18T20:30:10.222Z,102273.66
2023-04-18T20:35:12.971Z,102277.50
2023-04-18T20:40:16.857Z,102284.47
2023-04-18T20:45:19.462Z,102281.41
2023-04-18T20:50:40.502Z,102277.25
2023-04-18T20:55:43.108Z,102261.75
2023-04-18T21:00:46.807Z,102274.25
2023-04-18T21:05:49.550Z,102277.72
2023-04-18T21:10:52.641Z,102267.38
2023-04-18T21:15:57.303Z,102267.69
2023-04-18T21:21:00.011Z,102260.00
2023-04-18T21:26:02.570Z,102261.94
2023-04-18T21:31:05.160Z,102251.59
2023-04-18T21:36:07.869Z,102257.53
2023-04-18T21:41:10.512Z,102251.19
2023-04-18T21:46:13.777Z,102243.47
2023-04-18T21:51:17.689Z,102254.41
2023-04-18T21:56:20.513Z,102244.72
2023-04-18T22:01:23.141Z,102230.88
2023-04-18T22:06:27.275Z,102226.53
2023-04-18T22:11:29.840Z,102241.97
2023-04-18T22:16:33.713Z,102232.94
2023-04-18T22:21:36.291Z,102226.81
2023-04-18T22:26:40.074Z,102217.00
2023-04-18T22:31:42.697Z,102203.09
2023-04-18T22:36:45.885Z,102198.94
2023-04-18T22:41:48.445Z,102198.81
2023-04-18T22:46:54.808Z,102195.84
2023-04-18T22:51:57.604Z,102192.00
2023-04-18T22:57:00.286Z,102195.50
2023-04-18T23:02:03.055Z,102178.22
2023-04-18T23:07:05.747Z,102165.06
2023-04-18T23:12:08.321Z,102170.56
2023-04-18T23:17:10.904Z,102163.13
2023-04-18T23:22:13.502Z,102148.38
2023-04-18T23:27:16.190Z,102147.41
2023-04-18T23:32:18.817Z,102147.41
2023-04-18T23:37:21.919Z,102145.44
2023-04-18T23:42:30.203Z,102124.00
2023-04-18T23:47:33.150Z,102116.03
2023-04-18T23:52:35.807Z,102116.19
2023-04-18T23:57:38.668Z,102112.66
